sensor_id;sensor_type;location;lat;lon;timestamp;temperature;humidity
63260;DHT22;49390;51.380;0.098;2023-04-24T00:02:08;9.80;99.90
63260;DHT22;49390;51.380;0.098;2023-04-24T00:04:39;9.80;99.90
63260;DHT22;49390;51.380;0.098;2023-04-24T00:07:12;9.80;99.90
63260;DHT22;49390;51.380;0.098;2023-04-24T00:09:43;9.80;99.90
63260;DHT22;49390;51.380;0.098;2023-04-24T00:12:12;9.80;99.90
63260;DHT22;49390;51.380;0.098;2023-04-24T00:14:39;9.80;99.90
63260;DHT22;49390;51.380;0.098;2023-04-24T00:17:08;9.80;99.90
63260;DHT22;49390;51.380;0.098;2023-04-24T00:19:36;9.80;99.90
63260;DHT22;49390;51.380;0.098;2023-04-24T00:22:04;9.80;99.90
63260;DHT22;49390;51.380;0.098;2023-04-24T00:24:31;9.80;99.90
63260;DHT22;49390;51.380;0.098;2023-04-24T00:27:00;9.70;99.90
63260;DHT22;49390;51.380;0.098;2023-04-24T00:29:28;9.70;99.90
63260;DHT22;49390;51.380;0.098;2023-04-24T00:31:56;9.70;99.90
63260;DHT22;49390;51.380;0.098;2023-04-24T00:34:25;9.70;99.90
63260;DHT22;49390;51.380;0.098;2023-04-24T00:36:55;9.70;99.90
63260;DHT22;49390;51.380;0.098;2023-04-24T00:39:23;9.80;99.90
63260;DHT22;49390;51.380;0.098;2023-04-24T00:41:51;9.80;99.90
63260;DHT22;49390;51.380;0.098;2023-04-24T00:44:20;9.80;99.90
63260;DHT22;49390;51.380;0.098;2023-04-24T00:46:49;9.80;99.90
63260;DHT22;49390;51.380;0.098;2023-04-24T00:49:22;9.80;99.90
63260;DHT22;49390;51.380;0.098;2023-04-24T00:51:50;9.80;99.90
63260;DHT22;49390;51.380;0.098;2023-04-24T00:54:21;9.80;99.90
63260;DHT22;49390;51.380;0.098;2023-04-24T00:56:51;9.80;99.90
63260;DHT22;49390;51.380;0.098;2023-04-24T00:59:19;9.80;99.90
63260;DHT22;49390;51.380;0.098;2023-04-24T01:01:47;9.70;99.90
63260;DHT22;49390;51.380;0.098;2023-04-24T01:04:16;9.70;99.90
63260;DHT22;49390;51.380;0.098;2023-04-24T01:06:48;9.70;99.90
63260;DHT22;49390;51.380;0.098;2023-04-24T01:09:21;9.70;99.90
63260;DHT22;49390;51.380;0.098;2023-04-24T01:11:51;9.70;99.90
63260;DHT22;49390;51.380;0.098;2023-04-24T01:14:20;9.70;99.90
63260;DHT22;49390;51.380;0.098;2023-04-24T01:16:50;9.70;99.90
63260;DHT22;49390;51.380;0.098;2023-04-24T01:19:18;9.70;99.90
63260;DHT22;49390;51.380;0.098;2023-04-24T01:21:47;9.70;99.90
63260;DHT22;49390;51.380;0.098;2023-04-24T01:24:18;9.60;99.90
63260;DHT22;49390;51.380;0.098;2023-04-24T01:26:47;9.70;99.90
63260;DHT22;49390;51.380;0.098;2023-04-24T01:29:15;9.70;99.90
63260;DHT22;49390;51.380;0.098;2023-04-24T01:31:43;9.70;99.90
63260;DHT22;49390;51.380;0.098;2023-04-24T01:34:12;9.70;99.90
63260;DHT22;49390;51.380;0.098;2023-04-24T01:36:41;9.70;99.90
63260;DHT22;49390;51.380;0.098;2023-04-24T01:39:11;9.70;99.90
63260;DHT22;49390;51.380;0.098;2023-04-24T01:41:39;9.70;99.90
63260;DHT22;49390;51.380;0.098;2023-04-24T01:44:07;9.70;99.90
63260;DHT22;49390;51.380;0.098;2023-04-24T01:46:38;9.70;99.90
63260;DHT22;49390;51.380;0.098;2023-04-24T01:49:06;9.80;99.90
63260;DHT22;49390;51.380;0.098;2023-04-24T01:51:34;9.70;99.90
63260;DHT22;49390;51.380;0.098;2023-04-24T01:54:03;9.70;99.90
63260;DHT22;49390;51.380;0.098;2023-04-24T01:56:33;9.70;99.90
63260;DHT22;49390;51.380;0.098;2023-04-24T01:59:03;9.70;99.90
63260;DHT22;49390;51.380;0.098;2023-04-24T02:01:35;9.70;99.90
63260;DHT22;49390;51.380;0.098;2023-04-24T02:04:05;9.60;99.90
63260;DHT22;49390;51.380;0.098;2023-04-24T02:06:38;9.60;99.90
63260;DHT22;49390;51.380;0.098;2023-04-24T02:09:06;9.60;99.90
63260;DHT22;49390;51.380;0.098;2023-04-24T02:11:35;9.60;99.90
63260;DHT22;49390;51.380;0.098;2023-04-24T02:14:02;9.50;99.90
63260;DHT22;49390;51.380;0.098;2023-04-24T02:16:32;9.50;99.90
63260;DHT22;49390;51.380;0.098;2023-04-24T02:19:00;9.50;99.90
63260;DHT22;49390;51.380;0.098;2023-04-24T02:21:28;9.50;99.90
63260;DHT22;49390;51.380;0.098;2023-04-24T02:23:58;9.50;99.90
63260;DHT22;49390;51.380;0.098;2023-04-24T02:26:26;9.50;99.90
63260;DHT22;49390;51.380;0.098;2023-04-24T02:28:54;9.50;99.90
63260;DHT22;49390;51.380;0.098;2023-04-24T02:31:22;9.50;99.90
63260;DHT22;49390;51.380;0.098;2023-04-24T02:33:50;9.50;99.90
63260;DHT22;49390;51.380;0.098;2023-04-24T02:36:18;9.50;99.90
63260;DHT22;49390;51.380;0.098;2023-04-24T02:38:50;9.50;99.90
63260;DHT22;49390;51.380;0.098;2023-04-24T02:41:18;9.40;99.90
63260;DHT22;49390;51.380;0.098;2023-04-24T02:43:49;9.50;99.90
63260;DHT22;49390;51.380;0.098;2023-04-24T02:46:17;9.40;99.90
63260;DHT22;49390;51.380;0.098;2023-04-24T02:48:45;9.40;99.90
63260;DHT22;49390;51.380;0.098;2023-04-24T02:51:13;9.40;99.90
63260;DHT22;49390;51.380;0.098;2023-04-24T02:53:44;9.40;99.90
63260;DHT22;49390;51.380;0.098;2023-04-24T02:56:12;9.40;99.90
63260;DHT22;49390;51.380;0.098;2023-04-24T02:58:40;9.40;99.90
63260;DHT22;49390;51.380;0.098;2023-04-24T03:01:08;9.30;99.90
63260;DHT22;49390;51.380;0.098;2023-04-24T03:03:39;9.40;99.90
63260;DHT22;49390;51.380;0.098;2023-04-24T03:06:07;9.30;99.90
63260;DHT22;49390;51.380;0.098;2023-04-24T03:08:35;9.30;99.90
63260;DHT22;49390;51.380;0.098;2023-04-24T03:11:04;9.30;99.90
63260;DHT22;49390;51.380;0.098;2023-04-24T03:13:32;9.30;99.90
63260;DHT22;49390;51.380;0.098;2023-04-24T03:16:03;9.30;99.90
63260;DHT22;49390;51.380;0.098;2023-04-24T03:18:31;9.30;99.90
63260;DHT22;49390;51.380;0.098;2023-04-24T03:21:00;9.30;99.90
63260;DHT22;49390;51.380;0.098;2023-04-24T03:23:28;9.30;99.90
63260;DHT22;49390;51.380;0.098;2023-04-24T03:25:56;9.30;99.90
63260;DHT22;49390;51.380;0.098;2023-04-24T03:28:25;9.20;99.90
63260;DHT22;49390;51.380;0.098;2023-04-24T03:31:02;9.20;99.90
63260;DHT22;49390;51.380;0.098;2023-04-24T03:33:36;9.20;99.90
63260;DHT22;49390;51.380;0.098;2023-04-24T03:36:04;9.20;99.90
63260;DHT22;49390;51.380;0.098;2023-04-24T03:38:39;9.20;99.90
63260;DHT22;49390;51.380;0.098;2023-04-24T03:41:27;9.20;99.90
63260;DHT22;49390;51.380;0.098;2023-04-24T03:44:04;9.20;99.90
63260;DHT22;49390;51.380;0.098;2023-04-24T03:46:32;9.20;99.90
63260;DHT22;49390;51.380;0.098;2023-04-24T03:49:02;9.10;99.90
63260;DHT22;49390;51.380;0.098;2023-04-24T03:51:34;9.20;99.90
63260;DHT22;49390;51.380;0.098;2023-04-24T03:54:11;9.20;99.90
63260;DHT22;49390;51.380;0.098;2023-04-24T03:56:40;9.20;99.90
63260;DHT22;49390;51.380;0.098;2023-04-24T03:59:08;9.20;99.90
63260;DHT22;49390;51.380;0.098;2023-04-24T04:01:37;9.20;99.90
63260;DHT22;49390;51.380;0.098;2023-04-24T04:04:11;9.20;99.90
63260;DHT22;49390;51.380;0.098;2023-04-24T04:06:40;9.20;99.90
63260;DHT22;49390;51.380;0.098;2023-04-24T04:09:08;9.20;99.90
63260;DHT22;49390;51.380;0.098;2023-04-24T04:11:37;9.20;99.90
63260;DHT22;49390;51.380;0.098;2023-04-24T04:14:05;9.20;99.90
63260;DHT22;49390;51.380;0.098;2023-04-24T04:16:35;9.10;99.90
63260;DHT22;49390;51.380;0.098;2023-04-24T04:19:05;9.10;99.90
63260;DHT22;49390;51.380;0.098;2023-04-24T04:21:34;9.10;99.90
63260;DHT22;49390;51.380;0.098;2023-04-24T04:24:22;9.10;99.90
63260;DHT22;49390;51.380;0.098;2023-04-24T04:26:52;9.10;99.90
63260;DHT22;49390;51.380;0.098;2023-04-24T04:29:28;9.10;99.90
63260;DHT22;49390;51.380;0.098;2023-04-24T04:31:57;9.10;99.90
63260;DHT22;49390;51.380;0.098;2023-04-24T04:34:27;9.20;99.90
63260;DHT22;49390;51.380;0.098;2023-04-24T04:36:55;9.10;99.90
63260;DHT22;49390;51.380;0.098;2023-04-24T04:39:45;9.10;99.90
63260;DHT22;49390;51.380;0.098;2023-04-24T04:42:19;9.10;99.90
63260;DHT22;49390;51.380;0.098;2023-04-24T04:44:47;9.10;99.90
63260;DHT22;49390;51.380;0.098;2023-04-24T04:47:23;9.10;99.90
63260;DHT22;49390;51.380;0.098;2023-04-24T04:49:53;9.10;99.90
63260;DHT22;49390;51.380;0.098;2023-04-24T04:52:24;9.10;99.90
63260;DHT22;49390;51.380;0.098;2023-04-24T04:55:01;9.00;99.90
63260;DHT22;49390;51.380;0.098;2023-04-24T04:57:53;9.00;99.90
63260;DHT22;49390;51.380;0.098;2023-04-24T05:00:21;9.00;99.90
63260;DHT22;49390;51.380;0.098;2023-04-24T05:02:52;9.00;99.90
63260;DHT22;49390;51.380;0.098;2023-04-24T05:05:20;9.00;99.90
63260;DHT22;49390;51.380;0.098;2023-04-24T05:07:49;9.00;99.90
63260;DHT22;49390;51.380;0.098;2023-04-24T05:10:17;9.00;99.90
63260;DHT22;49390;51.380;0.098;2023-04-24T05:12:45;8.90;99.90
63260;DHT22;49390;51.380;0.098;2023-04-24T05:15:13;8.90;99.90
63260;DHT22;49390;51.380;0.098;2023-04-24T05:17:41;8.90;99.90
63260;DHT22;49390;51.380;0.098;2023-04-24T05:20:10;8.90;99.90
63260;DHT22;49390;51.380;0.098;2023-04-24T05:22:39;8.90;99.90
63260;DHT22;49390;51.380;0.098;2023-04-24T05:25:07;9.00;99.90
63260;DHT22;49390;51.380;0.098;2023-04-24T05:27:41;8.90;99.90
63260;DHT22;49390;51.380;0.098;2023-04-24T05:30:14;9.00;99.90
63260;DHT22;49390;51.380;0.098;2023-04-24T05:32:42;9.00;99.90
63260;DHT22;49390;51.380;0.098;2023-04-24T05:35:10;9.00;99.90
63260;DHT22;49390;51.380;0.098;2023-04-24T05:37:38;9.00;99.90
63260;DHT22;49390;51.380;0.098;2023-04-24T05:40:07;9.00;99.90
63260;DHT22;49390;51.380;0.098;2023-04-24T05:42:36;9.00;99.90
63260;DHT22;49390;51.380;0.098;2023-04-24T05:45:05;9.10;99.90
63260;DHT22;49390;51.380;0.098;2023-04-24T05:47:33;9.10;99.90
63260;DHT22;49390;51.380;0.098;2023-04-24T05:50:01;9.10;99.90
63260;DHT22;49390;51.380;0.098;2023-04-24T05:52:30;9.10;99.90
63260;DHT22;49390;51.380;0.098;2023-04-24T05:56:29;9.10;99.90
63260;DHT22;49390;51.380;0.098;2023-04-24T05:58:59;9.20;99.90
63260;DHT22;49390;51.380;0.098;2023-04-24T06:01:26;9.20;99.90
63260;DHT22;49390;51.380;0.098;2023-04-24T06:04:05;9.20;99.90
63260;DHT22;49390;51.380;0.098;2023-04-24T06:06:35;9.20;99.90
63260;DHT22;49390;51.380;0.098;2023-04-24T06:09:04;9.30;99.90
63260;DHT22;49390;51.380;0.098;2023-04-24T06:11:34;9.30;99.90
63260;DHT22;49390;51.380;0.098;2023-04-24T06:14:03;9.30;99.90
63260;DHT22;49390;51.380;0.098;2023-04-24T06:16:37;9.30;99.90
63260;DHT22;49390;51.380;0.098;2023-04-24T06:19:17;9.30;99.90
63260;DHT22;49390;51.380;0.098;2023-04-24T06:21:45;9.40;99.90
63260;DHT22;49390;51.380;0.098;2023-04-24T06:24:16;9.40;99.90
63260;DHT22;49390;51.380;0.098;2023-04-24T06:26:44;9.40;99.90
63260;DHT22;49390;51.380;0.098;2023-04-24T06:29:12;9.50;99.90
63260;DHT22;49390;51.380;0.098;2023-04-24T06:31:40;9.50;99.90
63260;DHT22;49390;51.380;0.098;2023-04-24T06:34:08;9.50;99.90
63260;DHT22;49390;51.380;0.098;2023-04-24T06:36:36;9.60;99.90
63260;DHT22;49390;51.380;0.098;2023-04-24T06:39:04;9.70;99.90
63260;DHT22;49390;51.380;0.098;2023-04-24T06:41:32;9.80;99.90
63260;DHT22;49390;51.380;0.098;2023-04-24T06:44:00;9.80;99.90
63260;DHT22;49390;51.380;0.098;2023-04-24T06:46:28;9.90;99.90
63260;DHT22;49390;51.380;0.098;2023-04-24T06:48:57;9.90;99.90
63260;DHT22;49390;51.380;0.098;2023-04-24T06:51:26;9.90;99.90
63260;DHT22;49390;51.380;0.098;2023-04-24T06:53:55;9.80;99.90
63260;DHT22;49390;51.380;0.098;2023-04-24T06:56:26;9.80;99.90
63260;DHT22;49390;51.380;0.098;2023-04-24T06:58:54;9.90;99.90
63260;DHT22;49390;51.380;0.098;2023-04-24T07:01:22;9.90;99.90
63260;DHT22;49390;51.380;0.098;2023-04-24T07:03:50;9.90;99.90
63260;DHT22;49390;51.380;0.098;2023-04-24T07:06:18;10.00;99.90
63260;DHT22;49390;51.380;0.098;2023-04-24T07:08:49;10.10;99.90
63260;DHT22;49390;51.380;0.098;2023-04-24T07:11:17;10.20;99.90
63260;DHT22;49390;51.380;0.098;2023-04-24T07:13:45;10.30;99.90
63260;DHT22;49390;51.380;0.098;2023-04-24T07:16:13;10.50;99.90
63260;DHT22;49390;51.380;0.098;2023-04-24T07:18:41;10.80;99.90
63260;DHT22;49390;51.380;0.098;2023-04-24T07:21:09;11.10;99.90
63260;DHT22;49390;51.380;0.098;2023-04-24T07:23:37;11.50;99.90
63260;DHT22;49390;51.380;0.098;2023-04-24T07:26:05;11.90;99.90
63260;DHT22;49390;51.380;0.098;2023-04-24T07:28:34;12.30;99.90
63260;DHT22;49390;51.380;0.098;2023-04-24T07:31:01;12.60;99.90
63260;DHT22;49390;51.380;0.098;2023-04-24T07:33:29;13.00;99.90
63260;DHT22;49390;51.380;0.098;2023-04-24T07:35:58;13.40;99.90
63260;DHT22;49390;51.380;0.098;2023-04-24T07:38:29;13.70;99.90
63260;DHT22;49390;51.380;0.098;2023-04-24T07:40:57;13.80;99.90
63260;DHT22;49390;51.380;0.098;2023-04-24T07:43:25;13.90;99.90
63260;DHT22;49390;51.380;0.098;2023-04-24T07:45:53;14.10;99.90
63260;DHT22;49390;51.380;0.098;2023-04-24T07:48:22;14.20;99.90
63260;DHT22;49390;51.380;0.098;2023-04-24T07:50:49;14.30;99.80
63260;DHT22;49390;51.380;0.098;2023-04-24T07:53:18;14.50;99.80
63260;DHT22;49390;51.380;0.098;2023-04-24T07:55:46;14.80;96.20
63260;DHT22;49390;51.380;0.098;2023-04-24T07:58:14;15.00;93.90
63260;DHT22;49390;51.380;0.098;2023-04-24T08:00:42;15.30;92.40
63260;DHT22;49390;51.380;0.098;2023-04-24T08:03:11;15.50;91.00
63260;DHT22;49390;51.380;0.098;2023-04-24T08:05:40;15.70;88.30
63260;DHT22;49390;51.380;0.098;2023-04-24T08:08:09;15.80;85.30
63260;DHT22;49390;51.380;0.098;2023-04-24T08:10:37;15.90;82.90
63260;DHT22;49390;51.380;0.098;2023-04-24T08:13:05;16.10;80.70
63260;DHT22;49390;51.380;0.098;2023-04-24T08:15:33;16.30;78.10
63260;DHT22;49390;51.380;0.098;2023-04-24T08:18:02;16.40;75.90
63260;DHT22;49390;51.380;0.098;2023-04-24T08:20:30;16.70;74.70
63260;DHT22;49390;51.380;0.098;2023-04-24T08:22:58;16.60;73.30
63260;DHT22;49390;51.380;0.098;2023-04-24T08:25:26;16.70;71.40
63260;DHT22;49390;51.380;0.098;2023-04-24T08:27:54;16.80;70.50
63260;DHT22;49390;51.380;0.098;2023-04-24T08:30:22;16.80;69.50
63260;DHT22;49390;51.380;0.098;2023-04-24T08:32:51;16.80;68.80
63260;DHT22;49390;51.380;0.098;2023-04-24T08:35:18;16.90;67.60
63260;DHT22;49390;51.380;0.098;2023-04-24T08:37:47;16.90;67.00
63260;DHT22;49390;51.380;0.098;2023-04-24T08:40:16;16.70;66.70
63260;DHT22;49390;51.380;0.098;2023-04-24T08:42:44;16.40;66.10
63260;DHT22;49390;51.380;0.098;2023-04-24T08:45:13;16.20;66.80
63260;DHT22;49390;51.380;0.098;2023-04-24T08:47:42;16.10;67.20
63260;DHT22;49390;51.380;0.098;2023-04-24T08:50:10;16.10;67.40
63260;DHT22;49390;51.380;0.098;2023-04-24T08:52:38;16.20;67.20
63260;DHT22;49390;51.380;0.098;2023-04-24T08:55:06;16.40;66.80
63260;DHT22;49390;51.380;0.098;2023-04-24T08:57:35;16.40;65.30
63260;DHT22;49390;51.380;0.098;2023-04-24T09:00:06;16.30;65.10
63260;DHT22;49390;51.380;0.098;2023-04-24T09:02:41;16.10;65.60
63260;DHT22;49390;51.380;0.098;2023-04-24T09:05:12;15.90;65.90
63260;DHT22;49390;51.380;0.098;2023-04-24T09:07:45;15.80;66.00
63260;DHT22;49390;51.380;0.098;2023-04-24T09:10:17;15.70;66.60
63260;DHT22;49390;51.380;0.098;2023-04-24T09:12:45;15.50;66.70
63260;DHT22;49390;51.380;0.098;2023-04-24T09:15:14;15.50;67.00
63260;DHT22;49390;51.380;0.098;2023-04-24T09:17:43;15.30;67.20
63260;DHT22;49390;51.380;0.098;2023-04-24T09:20:11;15.20;67.50
63260;DHT22;49390;51.380;0.098;2023-04-24T09:22:39;15.10;67.30
63260;DHT22;49390;51.380;0.098;2023-04-24T09:25:08;14.90;67.30
63260;DHT22;49390;51.380;0.098;2023-04-24T09:27:44;14.80;67.80
63260;DHT22;49390;51.380;0.098;2023-04-24T09:30:13;14.70;67.80
63260;DHT22;49390;51.380;0.098;2023-04-24T09:32:41;14.60;68.20
63260;DHT22;49390;51.380;0.098;2023-04-24T09:35:12;14.60;68.50
63260;DHT22;49390;51.380;0.098;2023-04-24T09:37:46;14.60;68.70
63260;DHT22;49390;51.380;0.098;2023-04-24T09:40:21;14.90;68.40
63260;DHT22;49390;51.380;0.098;2023-04-24T09:42:54;15.10;67.90
63260;DHT22;49390;51.380;0.098;2023-04-24T09:45:43;15.40;67.60
63260;DHT22;49390;51.380;0.098;2023-04-24T09:48:11;15.50;67.20
63260;DHT22;49390;51.380;0.098;2023-04-24T09:50:39;15.50;66.80
63260;DHT22;49390;51.380;0.098;2023-04-24T09:53:13;15.60;66.80
63260;DHT22;49390;51.380;0.098;2023-04-24T09:55:45;15.50;66.50
63260;DHT22;49390;51.380;0.098;2023-04-24T09:58:18;15.50;66.10
63260;DHT22;49390;51.380;0.098;2023-04-24T10:00:46;15.50;66.40
63260;DHT22;49390;51.380;0.098;2023-04-24T10:03:18;15.50;66.50
63260;DHT22;49390;51.380;0.098;2023-04-24T10:05:46;15.50;66.30
63260;DHT22;49390;51.380;0.098;2023-04-24T10:08:14;15.50;66.00
63260;DHT22;49390;51.380;0.098;2023-04-24T10:10:44;15.50;66.10
63260;DHT22;49390;51.380;0.098;2023-04-24T10:13:14;15.50;66.10
63260;DHT22;49390;51.380;0.098;2023-04-24T10:15:42;15.40;65.90
63260;DHT22;49390;51.380;0.098;2023-04-24T10:18:11;15.40;66.30
63260;DHT22;49390;51.380;0.098;2023-04-24T10:20:40;15.30;66.80
63260;DHT22;49390;51.380;0.098;2023-04-24T10:23:08;15.30;67.10
63260;DHT22;49390;51.380;0.098;2023-04-24T10:25:36;15.20;67.20
63260;DHT22;49390;51.380;0.098;2023-04-24T10:28:05;15.10;67.00
63260;DHT22;49390;51.380;0.098;2023-04-24T10:30:36;15.00;67.10
63260;DHT22;49390;51.380;0.098;2023-04-24T10:33:08;14.90;67.30
63260;DHT22;49390;51.380;0.098;2023-04-24T10:35:44;14.90;67.50
63260;DHT22;49390;51.380;0.098;2023-04-24T10:38:15;14.90;67.50
63260;DHT22;49390;51.380;0.098;2023-04-24T10:40:44;14.90;67.60
63260;DHT22;49390;51.380;0.098;2023-04-24T10:43:17;15.00;67.60
63260;DHT22;49390;51.380;0.098;2023-04-24T10:46:04;14.90;67.80
63260;DHT22;49390;51.380;0.098;2023-04-24T10:48:34;14.80;68.20
63260;DHT22;49390;51.380;0.098;2023-04-24T10:51:02;14.80;68.40
63260;DHT22;49390;51.380;0.098;2023-04-24T10:53:30;14.80;68.40
63260;DHT22;49390;51.380;0.098;2023-04-24T10:56:06;14.70;68.30
63260;DHT22;49390;51.380;0.098;2023-04-24T10:58:43;14.70;68.80
63260;DHT22;49390;51.380;0.098;2023-04-24T11:01:27;14.80;69.10
63260;DHT22;49390;51.380;0.098;2023-04-24T11:04:05;14.80;69.00
63260;DHT22;49390;51.380;0.098;2023-04-24T11:06:37;14.80;68.90
63260;DHT22;49390;51.380;0.098;2023-04-24T11:09:10;14.80;69.30
63260;DHT22;49390;51.380;0.098;2023-04-24T11:11:45;14.70;69.20
63260;DHT22;49390;51.380;0.098;2023-04-24T11:14:16;14.70;68.60
63260;DHT22;49390;51.380;0.098;2023-04-24T11:16:54;14.70;68.40
63260;DHT22;49390;51.380;0.098;2023-04-24T11:19:26;14.60;68.70
63260;DHT22;49390;51.380;0.098;2023-04-24T11:27:18;14.80;68.40
63260;DHT22;49390;51.380;0.098;2023-04-24T11:32:28;15.00;68.10
63260;DHT22;49390;51.380;0.098;2023-04-24T11:37:47;15.50;66.60
63260;DHT22;49390;51.380;0.098;2023-04-24T11:40:24;15.50;65.90
63260;DHT22;49390;51.380;0.098;2023-04-24T11:42:54;15.50;65.90
63260;DHT22;49390;51.380;0.098;2023-04-24T11:45:27;15.40;66.10
63260;DHT22;49390;51.380;0.098;2023-04-24T11:47:56;15.40;66.40
63260;DHT22;49390;51.380;0.098;2023-04-24T11:50:26;15.40;66.50
63260;DHT22;49390;51.380;0.098;2023-04-24T11:52:55;15.30;66.90
63260;DHT22;49390;51.380;0.098;2023-04-24T11:55:26;15.30;67.20
63260;DHT22;49390;51.380;0.098;2023-04-24T11:57:56;15.20;66.70
63260;DHT22;49390;51.380;0.098;2023-04-24T12:00:29;15.10;66.60
63260;DHT22;49390;51.380;0.098;2023-04-24T12:03:11;15.00;66.90
63260;DHT22;49390;51.380;0.098;2023-04-24T12:05:40;15.00;67.20
63260;DHT22;49390;51.380;0.098;2023-04-24T12:08:09;15.10;67.30
63260;DHT22;49390;51.380;0.098;2023-04-24T12:10:37;15.20;66.40
63260;DHT22;49390;51.380;0.098;2023-04-24T12:13:07;15.40;66.10
63260;DHT22;49390;51.380;0.098;2023-04-24T12:15:40;15.60;65.70
63260;DHT22;49390;51.380;0.098;2023-04-24T12:18:12;15.90;65.40
63260;DHT22;49390;51.380;0.098;2023-04-24T12:20:40;16.10;64.90
63260;DHT22;49390;51.380;0.098;2023-04-24T12:23:08;16.20;63.10
63260;DHT22;49390;51.380;0.098;2023-04-24T12:25:38;16.30;63.10
63260;DHT22;49390;51.380;0.098;2023-04-24T12:30:43;16.50;62.80
63260;DHT22;49390;51.380;0.098;2023-04-24T12:33:18;16.50;62.30
63260;DHT22;49390;51.380;0.098;2023-04-24T12:35:57;16.30;62.30
63260;DHT22;49390;51.380;0.098;2023-04-24T12:38:26;16.00;63.00
63260;DHT22;49390;51.380;0.098;2023-04-24T12:41:06;15.90;63.30
63260;DHT22;49390;51.380;0.098;2023-04-24T12:43:34;15.80;63.00
63260;DHT22;49390;51.380;0.098;2023-04-24T12:46:04;16.00;63.20
63260;DHT22;49390;51.380;0.098;2023-04-24T12:48:33;16.20;62.20
63260;DHT22;49390;51.380;0.098;2023-04-24T12:51:01;16.20;61.50
63260;DHT22;49390;51.380;0.098;2023-04-24T12:53:29;16.10;60.80
63260;DHT22;49390;51.380;0.098;2023-04-24T12:55:59;15.80;60.70
63260;DHT22;49390;51.380;0.098;2023-04-24T12:58:26;15.60;61.50
63260;DHT22;49390;51.380;0.098;2023-04-24T13:00:55;15.50;61.90
63260;DHT22;49390;51.380;0.098;2023-04-24T13:03:22;15.30;62.50
63260;DHT22;49390;51.380;0.098;2023-04-24T13:05:51;15.20;63.10
63260;DHT22;49390;51.380;0.098;2023-04-24T13:08:19;15.10;63.10
63260;DHT22;49390;51.380;0.098;2023-04-24T13:10:47;14.90;63.40
63260;DHT22;49390;51.380;0.098;2023-04-24T13:13:14;14.90;64.00
63260;DHT22;49390;51.380;0.098;2023-04-24T13:15:43;15.10;64.10
63260;DHT22;49390;51.380;0.098;2023-04-24T13:18:11;15.20;63.60
63260;DHT22;49390;51.380;0.098;2023-04-24T13:20:39;15.30;63.70
63260;DHT22;49390;51.380;0.098;2023-04-24T13:23:08;15.40;63.50
63260;DHT22;49390;51.380;0.098;2023-04-24T13:25:36;15.50;63.10
63260;DHT22;49390;51.380;0.098;2023-04-24T13:28:06;15.50;62.70
63260;DHT22;49390;51.380;0.098;2023-04-24T13:30:34;15.60;61.70
63260;DHT22;49390;51.380;0.098;2023-04-24T13:33:02;15.60;61.80
63260;DHT22;49390;51.380;0.098;2023-04-24T13:35:31;15.70;62.00
63260;DHT22;49390;51.380;0.098;2023-04-24T13:37:59;15.70;60.80
63260;DHT22;49390;51.380;0.098;2023-04-24T13:40:29;15.80;60.60
63260;DHT22;49390;51.380;0.098;2023-04-24T13:42:57;15.80;60.20
63260;DHT22;49390;51.380;0.098;2023-04-24T13:45:27;15.90;59.80
63260;DHT22;49390;51.380;0.098;2023-04-24T13:47:55;15.90;59.60
63260;DHT22;49390;51.380;0.098;2023-04-24T13:50:24;15.80;59.00
63260;DHT22;49390;51.380;0.098;2023-04-24T13:52:53;15.70;58.80
63260;DHT22;49390;51.380;0.098;2023-04-24T13:55:22;15.60;58.90
63260;DHT22;49390;51.380;0.098;2023-04-24T13:57:50;15.40;59.20
63260;DHT22;49390;51.380;0.098;2023-04-24T14:00:18;15.20;60.00
63260;DHT22;49390;51.380;0.098;2023-04-24T14:02:46;15.10;60.70
63260;DHT22;49390;51.380;0.098;2023-04-24T14:05:15;15.10;61.30
63260;DHT22;49390;51.380;0.098;2023-04-24T14:07:43;15.10;60.40
63260;DHT22;49390;51.380;0.098;2023-04-24T14:10:11;15.00;60.20
63260;DHT22;49390;51.380;0.098;2023-04-24T14:12:38;14.90;60.70
63260;DHT22;49390;51.380;0.098;2023-04-24T14:15:07;14.80;61.20
63260;DHT22;49390;51.380;0.098;2023-04-24T14:17:36;14.90;61.70
63260;DHT22;49390;51.380;0.098;2023-04-24T14:20:04;15.00;61.90
63260;DHT22;49390;51.380;0.098;2023-04-24T14:22:33;15.30;61.40
63260;DHT22;49390;51.380;0.098;2023-04-24T14:25:01;15.40;61.00
63260;DHT22;49390;51.380;0.098;2023-04-24T14:27:29;15.50;60.70
63260;DHT22;49390;51.380;0.098;2023-04-24T14:29:58;15.60;59.60
63260;DHT22;49390;51.380;0.098;2023-04-24T14:32:26;15.50;59.50
63260;DHT22;49390;51.380;0.098;2023-04-24T14:34:54;15.50;60.10
63260;DHT22;49390;51.380;0.098;2023-04-24T14:37:22;15.60;60.40
63260;DHT22;49390;51.380;0.098;2023-04-24T14:39:50;15.80;59.80
63260;DHT22;49390;51.380;0.098;2023-04-24T14:42:40;15.90;59.10
63260;DHT22;49390;51.380;0.098;2023-04-24T14:45:09;15.70;58.70
63260;DHT22;49390;51.380;0.098;2023-04-24T14:47:37;15.60;59.00
63260;DHT22;49390;51.380;0.098;2023-04-24T14:50:06;15.50;58.20
63260;DHT22;49390;51.380;0.098;2023-04-24T14:52:34;15.30;59.10
63260;DHT22;49390;51.380;0.098;2023-04-24T14:55:04;15.10;59.50
63260;DHT22;49390;51.380;0.098;2023-04-24T14:57:32;15.00;58.80
63260;DHT22;49390;51.380;0.098;2023-04-24T15:00:00;14.80;59.30
63260;DHT22;49390;51.380;0.098;2023-04-24T15:02:31;14.60;59.90
63260;DHT22;49390;51.380;0.098;2023-04-24T15:05:02;14.40;60.10
63260;DHT22;49390;51.380;0.098;2023-04-24T15:07:33;14.30;60.90
63260;DHT22;49390;51.380;0.098;2023-04-24T15:10:02;14.20;61.10
63260;DHT22;49390;51.380;0.098;2023-04-24T15:12:30;14.20;61.40
63260;DHT22;49390;51.380;0.098;2023-04-24T15:14:59;14.20;61.40
63260;DHT22;49390;51.380;0.098;2023-04-24T15:17:27;14.20;61.60
63260;DHT22;49390;51.380;0.098;2023-04-24T15:19:55;14.20;61.90
63260;DHT22;49390;51.380;0.098;2023-04-24T15:22:23;14.20;62.30
63260;DHT22;49390;51.380;0.098;2023-04-24T15:24:51;14.20;62.50
63260;DHT22;49390;51.380;0.098;2023-04-24T15:27:19;14.20;62.80
63260;DHT22;49390;51.380;0.098;2023-04-24T15:29:47;13.90;64.10
63260;DHT22;49390;51.380;0.098;2023-04-24T15:32:15;13.60;65.70
63260;DHT22;49390;51.380;0.098;2023-04-24T15:34:43;13.20;67.40
63260;DHT22;49390;51.380;0.098;2023-04-24T15:37:12;12.90;69.60
63260;DHT22;49390;51.380;0.098;2023-04-24T15:39:40;12.60;73.40
63260;DHT22;49390;51.380;0.098;2023-04-24T15:42:08;12.30;77.00
63260;DHT22;49390;51.380;0.098;2023-04-24T15:44:36;12.00;84.20
63260;DHT22;49390;51.380;0.098;2023-04-24T15:47:04;11.70;92.40
63260;DHT22;49390;51.380;0.098;2023-04-24T15:49:32;11.60;98.90
63260;DHT22;49390;51.380;0.098;2023-04-24T15:52:00;11.50;99.90
63260;DHT22;49390;51.380;0.098;2023-04-24T15:54:28;11.40;99.90
63260;DHT22;49390;51.380;0.098;2023-04-24T15:56:56;11.30;99.90
63260;DHT22;49390;51.380;0.098;2023-04-24T15:59:24;11.20;99.90
63260;DHT22;49390;51.380;0.098;2023-04-24T16:01:53;11.20;99.90
63260;DHT22;49390;51.380;0.098;2023-04-24T16:04:22;11.10;99.90
63260;DHT22;49390;51.380;0.098;2023-04-24T16:06:51;11.10;99.90
63260;DHT22;49390;51.380;0.098;2023-04-24T16:09:19;11.10;99.90